METAR Data
IDs: Format: Raw Decoded Include TAF

Data at: 1650 UTC 03 Jul 2020

METAR for:K4I3 (Mount Vernon/Knox Cn, OH, US)
Text:K4I3 031635Z AUTO 30004KT 10SM CLR 29/15 A3007 RMK AO2
Temperature: 29.0°C ( 84°F)
Dewpoint: 15.0°C ( 59°F) [RH = 43%]
Pressure (altimeter):30.07 inches Hg (1018.4 mb)
Winds:from the WNW (300 degrees) at 5 MPH (4 knots; 2.1 m/s)
Visibility:10 or more sm (16+ km)
Ceiling:at least 12,000 feet AGL
Clouds:sky clear below 12,000 feet AGL
QC Flag:automated observation with no human augmentation